Time;durP1;ratioP1;P1;durP2;ratioP2;P2;SDS_P1;SDS_P2;PMS_P1;PMS_P2;Temp;Humidity;BMP_temperature;BMP_pressure;BME280_temperature;BME280_humidity;BME280_pressure;Samples;Min_cycle;Max_cycle;Signal;HPM_P1;HPM_P2
2023/10/23 00:00:57;;;;;;;10.55;4.13;;;12.10;99.90;;;;;;2057236;28;20043;-77
2023/10/23 00:01:57;;;;;;;13.23;4.75;;;12.10;99.90;;;;;;2056042;28;20174;-77
2023/10/23 00:02:58;;;;;;;15.10;4.55;;;12.10;99.90;;;;;;2055338;28;20026;-77
2023/10/23 00:03:58;;;;;;;13.07;4.72;;;12.10;99.90;;;;;;2060987;28;20053;-76
2023/10/23 00:04:59;;;;;;;15.70;4.60;;;12.10;99.90;;;;;;2056933;28;20073;-77
2023/10/23 00:05:59;;;;;;;13.05;4.97;;;12.20;99.90;;;;;;2054539;28;20026;-77
2023/10/23 00:07:00;;;;;;;18.05;5.20;;;12.20;99.90;;;;;;2058762;28;20042;-77
2023/10/23 00:08:01;;;;;;;14.77;5.88;;;12.20;99.90;;;;;;2058356;28;20038;-76
2023/10/23 00:09:02;;;;;;;21.08;6.30;;;12.20;99.90;;;;;;2058382;28;20034;-76
2023/10/23 00:10:03;;;;;;;15.20;5.80;;;12.20;99.90;;;;;;2051804;28;20517;-77
2023/10/23 00:11:04;;;;;;;11.00;5.30;;;12.20;99.90;;;;;;2058573;28;20030;-77
2023/10/23 00:12:04;;;;;;;15.73;6.32;;;12.30;99.90;;;;;;2059279;28;20026;-77
2023/10/23 00:13:05;;;;;;;14.73;6.10;;;12.30;99.90;;;;;;2050317;28;20205;-76
2023/10/23 00:14:06;;;;;;;14.80;6.57;;;12.30;99.90;;;;;;2052385;28;20465;-76
2023/10/23 00:15:07;;;;;;;14.43;5.93;;;12.30;99.90;;;;;;2062127;28;20021;-75
2023/10/23 00:16:08;;;;;;;13.02;5.32;;;12.30;99.90;;;;;;2050426;28;20559;-76
2023/10/23 00:17:08;;;;;;;15.32;4.85;;;12.40;99.90;;;;;;2054436;28;20042;-76
2023/10/23 00:18:09;;;;;;;13.80;5.22;;;12.40;99.90;;;;;;2062517;28;20030;-77
2023/10/23 00:19:09;;;;;;;13.23;5.10;;;12.40;99.90;;;;;;2059241;28;20049;-77
2023/10/23 00:20:11;;;;;;;10.55;4.70;;;12.40;99.90;;;;;;2055254;28;20085;-76
2023/10/23 00:21:12;;;;;;;13.35;4.80;;;12.40;99.90;;;;;;2058885;28;20039;-76
2023/10/23 00:22:13;;;;;;;14.02;4.80;;;12.40;99.90;;;;;;2062937;28;20101;-75
2023/10/23 00:23:13;;;;;;;11.82;4.40;;;12.40;99.90;;;;;;2055548;28;20581;-76
2023/10/23 00:24:14;;;;;;;14.07;4.32;;;12.40;99.90;;;;;;2062295;28;20042;-76
2023/10/23 00:25:14;;;;;;;13.25;4.65;;;12.40;99.90;;;;;;2063025;28;20117;-76
2023/10/23 00:26:15;;;;;;;11.77;4.63;;;12.40;99.90;;;;;;2059954;28;20038;-77
2023/10/23 00:27:23;;;;;;;13.77;4.82;;;12.40;99.90;;;;;;2048446;28;20086;-77
2023/10/23 00:28:23;;;;;;;11.68;4.50;;;12.30;99.90;;;;;;2051303;28;20141;-77
2023/10/23 00:29:24;;;;;;;12.95;4.53;;;12.30;99.90;;;;;;2062405;28;20061;-77
2023/10/23 00:30:25;;;;;;;10.50;4.20;;;12.30;99.90;;;;;;2060309;28;20085;-76
2023/10/23 00:31:25;;;;;;;13.15;4.50;;;12.30;99.90;;;;;;2046609;28;20149;-76
2023/10/23 00:32:26;;;;;;;9.15;4.18;;;12.30;99.90;;;;;;2042099;28;20063;-77
2023/10/23 00:33:27;;;;;;;12.85;4.65;;;12.30;99.90;;;;;;2050322;28;23171;-76
2023/10/23 00:34:28;;;;;;;10.73;4.07;;;12.30;99.90;;;;;;2058145;28;20078;-76
2023/10/23 00:35:28;;;;;;;11.68;4.47;;;12.30;99.90;;;;;;2058480;28;20014;-76
2023/10/23 00:36:29;;;;;;;12.55;4.53;;;12.30;99.90;;;;;;2058255;28;20042;-76
2023/10/23 00:37:30;;;;;;;9.65;3.83;;;12.30;99.90;;;;;;2049164;28;20990;-77
2023/10/23 00:38:31;;;;;;;13.55;4.43;;;12.30;99.90;;;;;;2058416;28;20026;-76
2023/10/23 00:39:31;;;;;;;11.05;4.38;;;12.30;99.90;;;;;;2058414;28;20058;-77
2023/10/23 00:40:32;;;;;;;12.80;3.88;;;12.30;99.90;;;;;;2059596;28;20081;-75
2023/10/23 00:41:33;;;;;;;12.30;4.10;;;12.30;99.90;;;;;;2062203;28;20022;-76
2023/10/23 00:42:33;;;;;;;9.52;4.03;;;12.30;99.90;;;;;;2058173;28;20022;-76
2023/10/23 00:43:34;;;;;;;11.95;4.15;;;12.30;99.90;;;;;;2059645;28;20424;-76
2023/10/23 00:44:34;;;;;;;12.55;4.07;;;12.30;99.90;;;;;;2046149;28;20042;-75
2023/10/23 00:45:36;;;;;;;12.25;4.35;;;12.30;99.90;;;;;;2049406;28;20030;-76
2023/10/23 00:46:36;;;;;;;14.77;4.55;;;12.30;99.90;;;;;;2046372;28;20083;-76
2023/10/23 00:47:37;;;;;;;12.43;4.07;;;12.30;99.90;;;;;;2054213;28;20638;-78
2023/10/23 00:48:38;;;;;;;12.82;4.38;;;12.20;99.90;;;;;;2048572;28;20120;-78
2023/10/23 00:49:40;;;;;;;12.20;4.15;;;12.20;99.90;;;;;;2050580;28;20101;-75
2023/10/23 00:50:41;;;;;;;10.80;4.05;;;12.20;99.90;;;;;;2055239;28;20034;-76
2023/10/23 00:51:41;;;;;;;12.38;3.88;;;12.20;99.90;;;;;;2060131;28;20034;-76
2023/10/23 00:52:42;;;;;;;9.85;3.83;;;12.20;99.90;;;;;;2060215;28;20046;-75
2023/10/23 00:53:44;;;;;;;10.68;4.00;;;12.20;99.90;;;;;;2063416;28;20121;-76
2023/10/23 00:54:46;;;;;;;11.30;4.22;;;12.30;99.90;;;;;;2056741;28;20034;-76
2023/10/23 00:55:47;;;;;;;10.75;3.67;;;12.20;99.90;;;;;;2051434;28;20061;-75
2023/10/23 00:56:49;;;;;;;10.63;3.90;;;12.30;99.90;;;;;;2046656;28;20039;-75
2023/10/23 00:57:50;;;;;;;10.93;3.80;;;12.30;99.90;;;;;;2044235;28;20039;-76
2023/10/23 00:58:50;;;;;;;13.38;3.90;;;12.30;99.90;;;;;;2044842;28;20063;-76
2023/10/23 00:59:51;;;;;;;8.60;3.58;;;12.30;99.90;;;;;;2049012;28;20122;-76
2023/10/23 01:00:54;;;;;;;12.73;3.97;;;12.30;99.90;;;;;;2051832;28;20126;-77
2023/10/23 01:01:56;;;;;;;8.93;3.50;;;12.30;99.90;;;;;;2057939;28;20058;-76
2023/10/23 01:02:56;;;;;;;9.45;3.88;;;12.30;99.90;;;;;;2058723;28;20053;-77
2023/10/23 01:03:59;;;;;;;8.70;3.45;;;12.30;99.90;;;;;;2054067;28;20096;-76
2023/10/23 01:05:01;;;;;;;10.63;3.65;;;12.30;99.90;;;;;;2054218;28;20022;-76
2023/10/23 01:06:02;;;;;;;9.20;3.88;;;12.30;99.90;;;;;;2048983;28;20042;-76
2023/10/23 01:07:02;;;;;;;9.52;3.55;;;12.20;99.90;;;;;;2049344;28;20027;-76
2023/10/23 01:08:04;;;;;;;10.85;3.70;;;12.20;99.90;;;;;;2051069;28;20077;-76
2023/10/23 01:09:05;;;;;;;9.75;3.65;;;12.20;99.90;;;;;;2054099;28;20026;-77
2023/10/23 01:10:06;;;;;;;10.80;3.67;;;12.20;99.90;;;;;;2058138;28;20431;-76
2023/10/23 01:11:07;;;;;;;11.60;3.80;;;12.20;99.90;;;;;;2058234;28;20073;-76
2023/10/23 01:12:08;;;;;;;12.50;3.70;;;12.20;99.90;;;;;;2062219;28;20034;-76
2023/10/23 01:13:09;;;;;;;11.45;4.00;;;12.10;99.90;;;;;;2062747;28;20042;-76
2023/10/23 01:14:10;;;;;;;14.43;4.30;;;12.10;99.90;;;;;;2047217;28;20031;-75
2023/10/23 01:15:10;;;;;;;10.27;3.95;;;12.10;99.90;;;;;;2049875;28;20712;-77
2023/10/23 01:16:11;;;;;;;10.13;3.78;;;12.10;99.90;;;;;;2061922;28;20037;-77
2023/10/23 01:17:11;;;;;;;10.25;3.92;;;12.00;99.90;;;;;;2061675;28;20495;-77
2023/10/23 01:18:12;;;;;;;10.20;4.07;;;12.00;99.90;;;;;;2054157;28;20062;-77
2023/10/23 01:19:13;;;;;;;9.25;3.65;;;12.00;99.90;;;;;;2053577;28;20110;-77
2023/10/23 01:20:15;;;;;;;9.77;3.88;;;12.00;99.90;;;;;;2029638;29;20091;-78
2023/10/23 01:21:15;;;;;;;10.32;4.07;;;12.00;99.90;;;;;;2035200;28;20098;-78
2023/10/23 01:22:16;;;;;;;11.15;3.95;;;11.90;99.90;;;;;;2061313;28;20076;-77
2023/10/23 01:23:16;;;;;;;13.45;4.18;;;11.90;99.90;;;;;;2056778;28;20026;-77
2023/10/23 01:24:19;;;;;;;10.73;3.95;;;11.90;99.90;;;;;;2055167;28;20030;-78
2023/10/23 01:25:20;;;;;;;12.15;3.95;;;11.90;99.90;;;;;;2056645;28;20663;-77
2023/10/23 01:26:21;;;;;;;13.65;4.00;;;11.90;99.90;;;;;;2050005;28;20038;-77
2023/10/23 01:27:21;;;;;;;10.75;3.67;;;11.80;99.90;;;;;;2051670;28;20464;-77
2023/10/23 01:28:22;;;;;;;11.05;4.15;;;11.80;99.90;;;;;;2049795;28;20103;-77
2023/10/23 01:29:22;;;;;;;10.20;4.00;;;11.80;99.90;;;;;;2058083;28;20038;-77
2023/10/23 01:30:23;;;;;;;11.02;3.92;;;11.80;99.90;;;;;;2056115;28;20045;-77
2023/10/23 01:31:24;;;;;;;10.32;3.60;;;11.80;99.90;;;;;;2050152;28;20058;-77
2023/10/23 01:32:24;;;;;;;9.48;3.80;;;11.80;99.90;;;;;;2055764;28;20130;-76
2023/10/23 01:33:26;;;;;;;11.77;4.20;;;11.70;99.90;;;;;;2057990;28;20034;-76
2023/10/23 01:34:27;;;;;;;9.40;3.50;;;11.70;99.90;;;;;;2054725;28;20050;-76
2023/10/23 01:35:27;;;;;;;17.20;4.32;;;11.70;99.90;;;;;;2052272;28;20507;-76
2023/10/23 01:36:29;;;;;;;11.68;4.07;;;11.70;99.90;;;;;;2056411;28;20042;-76
2023/10/23 01:37:29;;;;;;;12.95;4.10;;;11.70;99.90;;;;;;2049875;28;20696;-76
2023/10/23 01:38:30;;;;;;;11.75;4.07;;;11.70;99.90;;;;;;2050551;28;20074;-76
2023/10/23 01:39:30;;;;;;;10.48;4.22;;;11.70;99.90;;;;;;2049637;28;20031;-77
2023/10/23 01:40:32;;;;;;;10.73;4.90;;;11.70;99.90;;;;;;2048953;28;20053;-77
2023/10/23 01:41:34;;;;;;;12.88;4.30;;;11.70;99.90;;;;;;2055189;28;20054;-76
2023/10/23 01:42:34;;;;;;;11.35;4.38;;;11.80;99.90;;;;;;2058038;28;20018;-76
2023/10/23 01:43:35;;;;;;;12.82;4.30;;;11.80;99.90;;;;;;2057990;28;20521;-77
2023/10/23 01:44:37;;;;;;;10.30;4.22;;;11.80;99.90;;;;;;2060650;28;20069;-75
2023/10/23 01:45:38;;;;;;;9.82;3.90;;;11.80;99.90;;;;;;2058356;28;20555;-76
2023/10/23 01:46:38;;;;;;;12.48;4.10;;;11.80;99.90;;;;;;2063634;28;20036;-76
2023/10/23 01:47:39;;;;;;;10.07;3.90;;;11.80;99.90;;;;;;2061621;28;20037;-76
2023/10/23 01:48:40;;;;;;;11.77;4.50;;;11.90;99.90;;;;;;2058131;28;20027;-76
2023/10/23 01:49:40;;;;;;;10.25;4.28;;;11.90;99.90;;;;;;2053434;28;20019;-76
2023/10/23 01:50:41;;;;;;;11.43;4.25;;;11.90;99.90;;;;;;2042740;28;20021;-76
2023/10/23 01:51:41;;;;;;;12.13;4.78;;;11.90;99.90;;;;;;2049638;28;20054;-75
2023/10/23 01:52:44;;;;;;;12.52;4.68;;;11.90;99.90;;;;;;2046238;28;20023;-76
2023/10/23 01:53:45;;;;;;;14.25;5.25;;;11.90;99.90;;;;;;2045799;28;20014;-76
2023/10/23 01:54:46;;;;;;;12.60;4.55;;;11.90;99.90;;;;;;2041682;28;20046;-75
2023/10/23 01:55:46;;;;;;;11.85;5.10;;;11.90;99.90;;;;;;2045914;28;20025;-77
2023/10/23 01:56:47;;;;;;;14.50;5.32;;;11.90;99.90;;;;;;2042294;28;20517;-77
2023/10/23 01:57:47;;;;;;;13.52;5.35;;;11.80;99.90;;;;;;2050056;28;20050;-77
2023/10/23 01:58:50;;;;;;;11.98;5.10;;;11.80;99.90;;;;;;2056605;28;20671;-77
2023/10/23 01:59:51;;;;;;;11.20;5.43;;;11.90;99.90;;;;;;2050708;28;20386;-76
2023/10/23 02:00:52;;;;;;;11.88;5.40;;;11.90;99.90;;;;;;2050991;28;20058;-78
2023/10/23 02:01:52;;;;;;;12.88;5.40;;;11.90;99.90;;;;;;2055182;28;20018;-76
2023/10/23 02:02:53;;;;;;;10.90;5.40;;;11.90;99.90;;;;;;2057795;28;20018;-76
2023/10/23 02:03:55;;;;;;;14.27;5.63;;;11.90;99.90;;;;;;2057622;28;20030;-75
2023/10/23 02:04:56;;;;;;;14.60;5.53;;;11.90;99.90;;;;;;2057001;28;20635;-76
2023/10/23 02:05:57;;;;;;;11.93;5.60;;;11.90;99.90;;;;;;2044364;28;20022;-77
2023/10/23 02:06:58;;;;;;;15.77;5.72;;;11.90;99.90;;;;;;2041527;28;20611;-76
2023/10/23 02:08:00;;;;;;;14.93;5.60;;;11.90;99.90;;;;;;2038500;28;20581;-77
2023/10/23 02:09:01;;;;;;;13.77;5.72;;;11.90;99.90;;;;;;2051203;28;20035;-75
2023/10/23 02:10:02;;;;;;;16.40;6.32;;;11.90;99.90;;;;;;2050527;28;20480;-76
2023/10/23 02:11:02;;;;;;;15.77;6.40;;;11.90;99.90;;;;;;2043494;28;20039;-77
2023/10/23 02:12:04;;;;;;;15.52;5.93;;;11.80;99.90;;;;;;2052791;28;20102;-77
2023/10/23 02:13:05;;;;;;;19.60;6.72;;;11.90;99.90;;;;;;2059286;28;20606;-77
2023/10/23 02:14:07;;;;;;;17.73;7.40;;;11.90;99.90;;;;;;2056191;28;20397;-76
2023/10/23 02:15:10;;;;;;;21.73;8.63;;;11.90;99.90;;;;;;2056702;28;20031;-76
2023/10/23 02:16:10;;;;;;;20.45;9.57;;;11.90;99.90;;;;;;2063209;28;20093;-76
2023/10/23 02:17:11;;;;;;;28.80;12.45;;;11.90;99.90;;;;;;2047732;28;20035;-76
2023/10/23 02:18:12;;;;;;;26.25;11.80;;;11.90;99.90;;;;;;2051671;28;20601;-76
2023/10/23 02:19:13;;;;;;;24.60;11.68;;;11.90;99.90;;;;;;2063265;28;20029;-76
2023/10/23 02:20:13;;;;;;;25.00;10.00;;;11.90;99.90;;;;;;2059618;28;20030;-74
2023/10/23 02:21:14;;;;;;;23.20;10.55;;;11.90;99.90;;;;;;2058962;28;20126;-74
2023/10/23 02:22:16;;;;;;;23.25;10.30;;;11.80;99.90;;;;;;2055407;28;20061;-75
2023/10/23 02:23:17;;;;;;;21.60;8.90;;;11.80;99.90;;;;;;2054610;28;20073;-75
2023/10/23 02:24:19;;;;;;;20.52;8.07;;;11.80;99.90;;;;;;2055944;28;20045;-76
2023/10/23 02:25:20;;;;;;;17.15;7.97;;;11.80;99.90;;;;;;2044060;28;20050;-75
2023/10/23 02:26:21;;;;;;;18.70;7.45;;;11.80;99.90;;;;;;2052180;28;20870;-74
2023/10/23 02:27:21;;;;;;;19.55;9.20;;;11.80;99.90;;;;;;2059497;28;20045;-75
2023/10/23 02:28:22;;;;;;;19.02;8.52;;;11.80;99.90;;;;;;2057917;28;20034;-75
2023/10/23 02:29:22;;;;;;;19.83;7.30;;;11.80;99.90;;;;;;2055888;28;20035;-75
2023/10/23 02:30:23;;;;;;;19.80;7.10;;;11.70;99.90;;;;;;2047419;28;20119;-76
2023/10/23 02:31:24;;;;;;;18.17;8.23;;;11.70;99.90;;;;;;2053718;28;20038;-75
2023/10/23 02:32:24;;;;;;;20.30;9.20;;;11.70;99.90;;;;;;2056903;28;20512;-75
2023/10/23 02:33:25;;;;;;;24.10;9.80;;;11.70;99.90;;;;;;2059062;28;20764;-75
2023/10/23 02:34:25;;;;;;;23.27;10.60;;;11.70;99.90;;;;;;2059285;28;20683;-75
2023/10/23 02:35:26;;;;;;;22.08;10.15;;;11.70;99.90;;;;;;2059095;28;20045;-74
2023/10/23 02:36:27;;;;;;;22.33;10.43;;;11.70;99.90;;;;;;2052517;28;20046;-74
2023/10/23 02:37:28;;;;;;;20.00;9.45;;;11.70;99.90;;;;;;2053084;28;20101;-75
2023/10/23 02:38:28;;;;;;;17.05;6.55;;;11.80;99.90;;;;;;2057925;28;20035;-75
2023/10/23 02:39:29;;;;;;;14.70;6.07;;;11.70;99.90;;;;;;2057850;28;20026;-75
2023/10/23 02:40:30;;;;;;;13.23;5.97;;;11.80;99.90;;;;;;2058078;28;20030;-75
2023/10/23 02:41:31;;;;;;;13.65;5.78;;;11.80;99.90;;;;;;2059443;28;20509;-75
2023/10/23 02:42:31;;;;;;;13.80;6.30;;;11.80;99.90;;;;;;2059161;28;20034;-75
2023/10/23 02:43:33;;;;;;;13.48;5.75;;;11.80;99.90;;;;;;2061283;28;20156;-75
2023/10/23 02:44:34;;;;;;;12.88;5.50;;;11.80;99.90;;;;;;2052070;28;20397;-74
2023/10/23 02:45:34;;;;;;;14.73;5.70;;;11.80;99.90;;;;;;2055076;28;20054;-75
2023/10/23 02:46:35;;;;;;;15.18;5.85;;;11.90;99.90;;;;;;2053873;28;20102;-75
2023/10/23 02:47:37;;;;;;;13.80;5.60;;;11.80;99.90;;;;;;2044027;28;20031;-75
2023/10/23 02:48:38;;;;;;;13.70;5.50;;;11.90;99.90;;;;;;2036049;28;20043;-75
2023/10/23 02:49:38;;;;;;;12.65;5.00;;;11.90;99.90;;;;;;2041469;28;20034;-75
2023/10/23 02:50:39;;;;;;;13.73;5.22;;;11.90;99.90;;;;;;2051461;28;20122;-75
2023/10/23 02:51:40;;;;;;;12.60;5.00;;;11.90;99.90;;;;;;2054366;28;20108;-75
2023/10/23 02:52:40;;;;;;;16.85;5.28;;;11.90;99.90;;;;;;2039617;29;20028;-74
2023/10/23 02:53:41;;;;;;;15.70;5.50;;;11.80;99.90;;;;;;2043297;28;20448;-75
2023/10/23 02:54:41;;;;;;;14.20;6.20;;;11.90;99.90;;;;;;2050942;28;20121;-75
2023/10/23 02:55:42;;;;;;;15.82;6.07;;;11.80;99.90;;;;;;2051383;28;20655;-74
2023/10/23 02:56:43;;;;;;;15.82;6.10;;;11.80;99.90;;;;;;2055679;28;20688;-76
2023/10/23 02:57:43;;;;;;;13.98;5.75;;;11.80;99.90;;;;;;2055875;28;20103;-75
2023/10/23 02:58:44;;;;;;;10.55;5.15;;;11.90;99.90;;;;;;2055760;28;20133;-75
2023/10/23 02:59:46;;;;;;;15.60;5.20;;;11.80;99.90;;;;;;2047350;28;20058;-76
2023/10/23 03:00:47;;;;;;;17.60;5.53;;;11.80;99.90;;;;;;2051344;28;20110;-75
2023/10/23 03:01:48;;;;;;;15.57;5.85;;;11.80;99.90;;;;;;2055040;28;20027;-75
2023/10/23 03:02:48;;;;;;;14.95;5.50;;;11.80;99.90;;;;;;2050913;28;20038;-75
2023/10/23 03:03:50;;;;;;;13.57;5.32;;;11.80;99.90;;;;;;2046109;28;20034;-75
2023/10/23 03:04:50;;;;;;;15.77;5.70;;;11.80;99.90;;;;;;2049124;28;20030;-75
2023/10/23 03:05:52;;;;;;;12.00;5.13;;;11.80;99.90;;;;;;2049976;28;20558;-76
2023/10/23 03:06:52;;;;;;;15.63;6.00;;;11.80;99.90;;;;;;2050821;28;20037;-75
2023/10/23 03:07:53;;;;;;;16.13;5.75;;;11.80;99.90;;;;;;2059028;28;20499;-74
2023/10/23 03:08:54;;;;;;;15.48;5.07;;;11.80;99.90;;;;;;2058701;28;20041;-75
2023/10/23 03:09:54;;;;;;;12.75;5.10;;;11.80;99.90;;;;;;2062743;28;20074;-75
2023/10/23 03:10:55;;;;;;;12.60;4.88;;;11.80;99.90;;;;;;2061387;28;20481;-75
2023/10/23 03:11:55;;;;;;;13.00;5.40;;;11.80;99.90;;;;;;2058671;28;20085;-75
2023/10/23 03:12:56;;;;;;;14.55;5.30;;;11.80;99.90;;;;;;2058663;28;20026;-76
2023/10/23 03:13:56;;;;;;;17.23;7.25;;;11.80;99.90;;;;;;2057514;28;20054;-75
2023/10/23 03:14:57;;;;;;;14.13;5.18;;;11.80;99.90;;;;;;2052629;28;20062;-76
2023/10/23 03:15:58;;;;;;;18.98;5.93;;;11.90;99.90;;;;;;2057270;28;20027;-75
2023/10/23 03:16:59;;;;;;;17.38;6.50;;;11.90;99.90;;;;;;2061916;28;20014;-74
2023/10/23 03:18:03;;;;;;;20.25;7.38;;;11.90;99.90;;;;;;2053409;28;20727;-75
2023/10/23 03:19:04;;;;;;;22.98;7.47;;;11.90;99.90;;;;;;2057481;28;20034;-75
2023/10/23 03:20:06;;;;;;;17.92;6.07;;;11.90;99.90;;;;;;2050892;28;20487;-75
2023/10/23 03:21:07;;;;;;;17.05;5.53;;;11.90;99.90;;;;;;2049972;28;20118;-75
2023/10/23 03:22:07;;;;;;;22.52;7.85;;;11.90;99.90;;;;;;2058922;28;20026;-75
2023/10/23 03:23:08;;;;;;;24.77;7.88;;;11.90;99.90;;;;;;2050642;28;20529;-75
2023/10/23 03:24:09;;;;;;;19.98;7.20;;;11.90;99.90;;;;;;2051222;28;20142;-75
2023/10/23 03:25:10;;;;;;;15.23;5.78;;;11.90;99.90;;;;;;2054577;28;20081;-75
2023/10/23 03:26:11;;;;;;;18.77;6.28;;;11.90;99.90;;;;;;2050827;28;20134;-75
2023/10/23 03:27:11;;;;;;;16.77;6.15;;;11.90;99.90;;;;;;2059672;28;20030;-75
2023/10/23 03:28:12;;;;;;;19.85;7.25;;;11.80;99.90;;;;;;2059880;28;20038;-75
2023/10/23 03:29:13;;;;;;;14.25;6.25;;;11.80;99.90;;;;;;2059265;28;20443;-75
2023/10/23 03:30:13;;;;;;;11.43;6.13;;;11.80;99.90;;;;;;2059544;28;20026;-75
2023/10/23 03:31:14;;;;;;;12.57;5.20;;;11.70;99.90;;;;;;2059676;28;20513;-75
2023/10/23 03:32:15;;;;;;;11.93;4.75;;;11.70;99.90;;;;;;2054336;28;20030;-75
2023/10/23 03:33:16;;;;;;;13.18;4.45;;;11.70;99.90;;;;;;2050748;28;20038;-75
2023/10/23 03:34:16;;;;;;;15.50;4.68;;;11.80;99.90;;;;;;2063392;28;20038;-75
2023/10/23 03:35:17;;;;;;;18.00;5.32;;;11.70;99.90;;;;;;2063162;28;20438;-75
2023/10/23 03:36:18;;;;;;;18.77;7.53;;;11.70;99.90;;;;;;2055931;28;20121;-75
2023/10/23 03:37:20;;;;;;;20.92;6.18;;;11.70;99.90;;;;;;2058688;28;20061;-75
2023/10/23 03:38:21;;;;;;;15.20;5.00;;;11.70;99.90;;;;;;2063504;28;20400;-76
2023/10/23 03:39:21;;;;;;;16.45;4.72;;;11.70;99.90;;;;;;2055666;28;20085;-76
2023/10/23 03:40:22;;;;;;;17.10;5.40;;;11.80;99.90;;;;;;2062866;28;20026;-75
2023/10/23 03:41:23;;;;;;;12.40;5.10;;;11.70;99.90;;;;;;2054365;28;20118;-75
2023/10/23 03:42:24;;;;;;;18.33;6.85;;;11.70;99.90;;;;;;2056659;28;20038;-76
2023/10/23 03:43:25;;;;;;;15.77;5.65;;;11.70;99.90;;;;;;2054231;28;20031;-76
2023/10/23 03:44:26;;;;;;;18.17;5.05;;;11.70;99.90;;;;;;2052738;28;20688;-75
2023/10/23 03:45:26;;;;;;;14.48;5.13;;;11.70;99.90;;;;;;2056897;28;20054;-74
2023/10/23 03:46:27;;;;;;;17.83;5.88;;;11.70;99.90;;;;;;2061811;28;20026;-75
2023/10/23 03:47:28;;;;;;;15.43;5.45;;;11.70;99.90;;;;;;2065792;28;20026;-75
2023/10/23 03:48:29;;;;;;;17.15;5.70;;;11.70;99.90;;;;;;2056850;28;20041;-75
2023/10/23 03:49:30;;;;;;;15.50;5.32;;;11.70;99.90;;;;;;2047171;28;20054;-75
2023/10/23 03:50:31;;;;;;;15.15;5.25;;;11.70;99.90;;;;;;2051517;28;20520;-75
2023/10/23 03:51:31;;;;;;;13.05;4.95;;;11.80;99.90;;;;;;2044424;28;20045;-75
2023/10/23 03:52:32;;;;;;;17.65;5.18;;;11.80;99.90;;;;;;2048778;28;20043;-75
2023/10/23 03:53:33;;;;;;;14.48;5.10;;;11.80;99.90;;;;;;2057284;28;20046;-75
2023/10/23 03:54:33;;;;;;;13.30;4.65;;;11.80;99.90;;;;;;2057812;28;20516;-75
2023/10/23 03:55:37;;;;;;;14.48;4.47;;;11.80;99.90;;;;;;2056880;28;20116;-75
2023/10/23 03:56:38;;;;;;;14.68;4.55;;;11.80;99.90;;;;;;2058104;28;20038;-75
2023/10/23 03:57:38;;;;;;;10.93;4.25;;;11.80;99.90;;;;;;2056845;28;20058;-75
2023/10/23 03:58:40;;;;;;;11.20;4.03;;;11.80;99.90;;;;;;2049931;28;20031;-75
2023/10/23 03:59:44;;;;;;;17.23;3.88;;;11.90;99.90;;;;;;2054649;28;20030;-75
2023/10/23 04:00:44;;;;;;;11.32;3.47;;;11.80;99.90;;;;;;2059066;28;20027;-75
2023/10/23 04:01:45;;;;;;;13.00;3.55;;;11.90;99.90;;;;;;2053926;28;20036;-75
2023/10/23 04:02:45;;;;;;;10.98;2.90;;;11.90;99.90;;;;;;2050914;28;20082;-75
2023/10/23 04:03:46;;;;;;;10.10;3.33;;;11.90;99.90;;;;;;2058693;28;20030;-74
2023/10/23 04:04:47;;;;;;;12.30;3.78;;;11.90;99.90;;;;;;2048976;28;20496;-75
2023/10/23 04:05:47;;;;;;;12.90;3.28;;;11.90;99.90;;;;;;2047314;28;20214;-75
2023/10/23 04:06:48;;;;;;;9.30;3.53;;;11.90;99.90;;;;;;2055566;28;20068;-75
2023/10/23 04:07:49;;;;;;;13.85;3.60;;;11.90;99.90;;;;;;2059020;28;20031;-75
2023/10/23 04:08:52;;;;;;;9.98;3.20;;;12.00;99.90;;;;;;2054351;28;20033;-75
2023/10/23 04:09:53;;;;;;;10.18;3.15;;;11.90;99.90;;;;;;2047648;28;20031;-75
2023/10/23 04:10:53;;;;;;;11.68;3.13;;;12.00;99.90;;;;;;2061801;28;20029;-75
2023/10/23 04:11:54;;;;;;;12.10;3.13;;;12.00;99.90;;;;;;2059952;28;20112;-74
2023/10/23 04:12:55;;;;;;;9.00;3.00;;;12.00;99.90;;;;;;2059684;28;20018;-74
2023/10/23 04:13:55;;;;;;;8.13;3.00;;;12.00;99.90;;;;;;2053642;28;20034;-75
2023/10/23 04:14:56;;;;;;;10.73;3.05;;;12.00;99.90;;;;;;2053046;28;20027;-75
2023/10/23 04:15:58;;;;;;;10.90;3.10;;;12.00;99.90;;;;;;2057477;28;20512;-75
2023/10/23 04:16:58;;;;;;;8.20;2.80;;;12.00;99.90;;;;;;2061939;28;20124;-76
2023/10/23 04:17:59;;;;;;;11.50;3.08;;;12.00;99.90;;;;;;2056797;28;20022;-75
2023/10/23 04:19:00;;;;;;;10.10;2.80;;;12.00;99.90;;;;;;2053583;28;20054;-75
2023/10/23 04:20:00;;;;;;;10.02;3.00;;;12.00;99.90;;;;;;2057401;28;20038;-75
2023/10/23 04:21:11;;;;;;;7.40;2.60;;;12.00;99.90;;;;;;2052579;28;20600;-75
2023/10/23 04:22:12;;;;;;;9.07;2.72;;;12.00;99.90;;;;;;2047126;28;20776;-75
2023/10/23 04:23:12;;;;;;;8.30;2.65;;;12.00;99.90;;;;;;2059446;28;20042;-75
2023/10/23 04:24:13;;;;;;;7.78;2.72;;;12.00;99.90;;;;;;2058997;28;20098;-75
2023/10/23 04:25:14;;;;;;;10.73;3.25;;;12.00;99.90;;;;;;2055253;28;20058;-75
2023/10/23 04:26:14;;;;;;;8.18;3.00;;;12.00;99.90;;;;;;2050484;28;20033;-74
2023/10/23 04:27:15;;;;;;;9.35;3.20;;;12.00;99.90;;;;;;2054549;28;20098;-75
2023/10/23 04:28:16;;;;;;;10.73;3.60;;;12.00;99.90;;;;;;2053960;28;20044;-75
2023/10/23 04:29:16;;;;;;;10.98;3.40;;;12.10;99.90;;;;;;2050815;28;20066;-75
2023/10/23 04:30:17;;;;;;;9.25;3.65;;;12.10;99.90;;;;;;2046433;28;20070;-74
2023/10/23 04:31:18;;;;;;;11.73;4.00;;;12.10;99.90;;;;;;2046128;28;20097;-75
2023/10/23 04:32:19;;;;;;;11.23;3.50;;;12.10;99.90;;;;;;2050527;28;20023;-74
2023/10/23 04:33:21;;;;;;;9.52;3.50;;;12.10;99.90;;;;;;2058799;28;20629;-75
2023/10/23 04:34:22;;;;;;;8.88;3.42;;;12.10;99.90;;;;;;2061124;28;20026;-76
2023/10/23 04:35:22;;;;;;;9.65;3.25;;;12.10;99.90;;;;;;2050470;28;20070;-75
2023/10/23 04:36:23;;;;;;;9.63;3.45;;;12.10;99.90;;;;;;2052976;28;20461;-75
2023/10/23 04:37:24;;;;;;;12.05;3.90;;;12.10;99.90;;;;;;2051438;28;20053;-75
2023/10/23 04:38:25;;;;;;;10.32;3.67;;;12.10;99.90;;;;;;2050419;28;20034;-74
2023/10/23 04:39:25;;;;;;;10.35;3.70;;;12.10;99.90;;;;;;2048251;28;20092;-74
2023/10/23 04:40:26;;;;;;;14.07;3.92;;;12.10;99.90;;;;;;2052999;28;20038;-75
2023/10/23 04:41:27;;;;;;;11.35;3.72;;;12.20;99.90;;;;;;2046624;28;20118;-74
2023/10/23 04:42:27;;;;;;;8.98;3.78;;;12.20;99.90;;;;;;2049842;28;20030;-75
2023/10/23 04:43:28;;;;;;;12.57;3.80;;;12.20;99.90;;;;;;2054986;28;20532;-75
2023/10/23 04:44:28;;;;;;;11.38;3.40;;;12.20;99.90;;;;;;2052172;28;20023;-74
2023/10/23 04:45:29;;;;;;;12.10;4.10;;;12.20;99.90;;;;;;2052983;28;20482;-73
2023/10/23 04:46:29;;;;;;;13.45;4.72;;;12.20;99.90;;;;;;2053366;28;20058;-75
2023/10/23 04:47:30;;;;;;;12.20;4.35;;;12.20;99.90;;;;;;2047813;28;20077;-75
2023/10/23 04:48:31;;;;;;;11.35;4.15;;;12.20;99.90;;;;;;2048120;28;20057;-75
2023/10/23 04:49:31;;;;;;;12.93;4.50;;;12.20;99.90;;;;;;2050087;28;20077;-74
2023/10/23 04:50:37;;;;;;;11.32;4.10;;;12.20;99.90;;;;;;2054960;28;20556;-74
2023/10/23 04:51:38;;;;;;;10.38;4.40;;;12.20;99.90;;;;;;2048040;28;20595;-74
2023/10/23 04:52:39;;;;;;;10.75;3.95;;;12.20;99.90;;;;;;2048817;28;20050;-74
2023/10/23 04:53:40;;;;;;;17.33;3.80;;;12.20;99.90;;;;;;2050274;28;20493;-75
2023/10/23 04:54:40;;;;;;;10.27;3.80;;;12.20;99.90;;;;;;2047642;28;20030;-75
2023/10/23 04:55:41;;;;;;;7.60;3.65;;;12.20;99.90;;;;;;2047075;28;20058;-75
2023/10/23 04:56:41;;;;;;;10.35;3.47;;;12.20;99.90;;;;;;2060034;28;20037;-74
2023/10/23 04:57:42;;;;;;;8.88;3.45;;;12.20;99.90;;;;;;2061164;28;20061;-74
2023/10/23 04:58:43;;;;;;;13.00;3.60;;;12.20;99.90;;;;;;2057362;28;20452;-73
2023/10/23 04:59:43;;;;;;;10.32;3.50;;;12.20;99.90;;;;;;2050877;28;20406;-74
2023/10/23 05:00:44;;;;;;;10.70;3.60;;;12.20;99.90;;;;;;2049456;28;20057;-81
2023/10/23 05:01:45;;;;;;;9.40;3.58;;;12.20;99.90;;;;;;2042382;28;20037;-73
2023/10/23 05:02:46;;;;;;;12.15;2.92;;;12.20;99.90;;;;;;2042519;28;20636;-73
2023/10/23 05:03:47;;;;;;;8.75;3.40;;;12.30;99.90;;;;;;2060026;28;20413;-72
2023/10/23 05:04:47;;;;;;;10.85;3.30;;;12.30;99.90;;;;;;2059368;28;20069;-72
2023/10/23 05:05:48;;;;;;;10.70;3.58;;;12.30;99.90;;;;;;2042671;28;20039;-73
2023/10/23 05:06:49;;;;;;;8.50;3.17;;;12.30;99.90;;;;;;2046976;28;20573;-73
2023/10/23 05:07:49;;;;;;;12.63;3.30;;;12.30;99.90;;;;;;2048312;28;20077;-73
2023/10/23 05:08:50;;;;;;;7.28;2.70;;;12.30;99.90;;;;;;2054169;28;20228;-72
2023/10/23 05:09:50;;;;;;;11.38;2.75;;;12.30;99.90;;;;;;2043004;28;20184;-72
2023/10/23 05:10:51;;;;;;;8.93;2.50;;;12.40;99.90;;;;;;2049604;28;20022;-72
2023/10/23 05:11:51;;;;;;;10.32;2.65;;;12.40;99.90;;;;;;2048648;28;20034;-72
2023/10/23 05:12:53;;;;;;;8.35;2.50;;;12.50;99.90;;;;;;2042800;28;20114;-72
2023/10/23 05:13:54;;;;;;;7.90;2.40;;;12.50;99.90;;;;;;2053577;28;20047;-72